Time;durP1;ratioP1;P1;durP2;ratioP2;P2;SDS_P1;SDS_P2;PMS_P1;PMS_P2;Temp;Humidity;BMP_temperature;BMP_pressure;BME280_temperature;BME280_humidity;BME280_pressure;Samples;Min_cycle;Max_cycle;Signal;HPM_P1;HPM_P2
2024/01/02 00:00:14;;;;;;;17.53;9.70;;;;;;;;;;4963649;28;20232;-72
2024/01/02 00:02:39;;;;;;;14.10;8.03;;;;;;;;;;4963032;28;20215;-71
2024/01/02 00:05:05;;;;;;;12.97;7.50;;;;;;;;;;4946990;28;20319;-73
2024/01/02 00:07:30;;;;;;;12.40;7.13;;;;;;;;;;4963668;28;20302;-73
2024/01/02 00:09:55;;;;;;;11.83;6.80;;;;;;;;;;4962808;28;20301;-73
2024/01/02 00:12:21;;;;;;;9.00;5.77;;;;;;;;;;4964684;28;21015;-73
2024/01/02 00:14:46;;;;;;;8.83;5.90;;;;;;;;;;4964264;28;20235;-72
2024/01/02 00:17:11;;;;;;;10.67;6.40;;;;;;;;;;4958188;28;20277;-73
2024/01/02 00:19:37;;;;;;;13.80;7.10;;;;;;;;;;4959251;28;20656;-74
2024/01/02 00:22:03;;;;;;;11.27;6.30;;;;;;;;;;4963737;28;20720;-72
2024/01/02 00:24:28;;;;;;;10.83;6.40;;;;;;;;;;4964486;28;20314;-73
2024/01/02 00:26:54;;;;;;;12.33;6.40;;;;;;;;;;4953039;28;20640;-72
2024/01/02 00:29:19;;;;;;;10.30;6.60;;;;;;;;;;4964239;28;20239;-73
2024/01/02 00:31:44;;;;;;;11.77;6.70;;;;;;;;;;4968808;28;20311;-73
2024/01/02 00:34:11;;;;;;;11.23;6.63;;;;;;;;;;4963745;28;20232;-75
2024/01/02 00:36:36;;;;;;;11.80;6.73;;;;;;;;;;4946881;28;20314;-73
2024/01/02 00:39:02;;;;;;;8.90;5.80;;;;;;;;;;4961663;28;21006;-73
2024/01/02 00:41:27;;;;;;;9.03;5.43;;;;;;;;;;4964670;28;20788;-72
2024/01/02 00:43:52;;;;;;;8.43;5.30;;;;;;;;;;4955616;28;21210;-72
2024/01/02 00:46:18;;;;;;;8.33;5.50;;;;;;;;;;4945286;28;20692;-72
2024/01/02 00:48:43;;;;;;;9.23;5.30;;;;;;;;;;4946879;28;20263;-72
2024/01/02 00:51:09;;;;;;;8.77;5.20;;;;;;;;;;4962367;28;20239;-72
2024/01/02 00:53:34;;;;;;;7.77;5.03;;;;;;;;;;4957643;28;20230;-73
2024/01/02 00:56:00;;;;;;;8.00;5.00;;;;;;;;;;4949605;28;20291;-72
2024/01/02 00:58:25;;;;;;;7.60;4.73;;;;;;;;;;4946570;28;20250;-73
2024/01/02 01:00:51;;;;;;;7.40;4.37;;;;;;;;;;4964116;28;20251;-73
2024/01/02 01:03:19;;;;;;;7.80;4.70;;;;;;;;;;4962449;28;20317;-72
2024/01/02 01:05:44;;;;;;;7.70;5.10;;;;;;;;;;4956950;28;20225;-73
2024/01/02 01:08:10;;;;;;;7.53;4.93;;;;;;;;;;4962112;28;20247;-73
2024/01/02 01:10:35;;;;;;;8.70;5.80;;;;;;;;;;4963816;28;20224;-73
2024/01/02 01:13:00;;;;;;;8.37;5.40;;;;;;;;;;4945901;28;20271;-73
2024/01/02 01:15:26;;;;;;;8.10;5.20;;;;;;;;;;4946181;28;20274;-73
2024/01/02 01:17:51;;;;;;;8.37;5.10;;;;;;;;;;4963367;28;20228;-73
2024/01/02 01:20:16;;;;;;;8.10;4.60;;;;;;;;;;4961106;28;20717;-74
2024/01/02 01:22:42;;;;;;;7.77;4.73;;;;;;;;;;4950077;28;20764;-73
2024/01/02 01:25:07;;;;;;;7.33;5.00;;;;;;;;;;4967125;28;20232;-73
2024/01/02 01:27:33;;;;;;;7.93;4.60;;;;;;;;;;4966860;28;20232;-73
2024/01/02 01:29:58;;;;;;;7.47;4.87;;;;;;;;;;4949988;28;20228;-73
2024/01/02 01:32:23;;;;;;;8.97;5.57;;;;;;;;;;4949928;28;20231;-73
2024/01/02 01:34:49;;;;;;;8.63;5.53;;;;;;;;;;4966540;28;20231;-73
2024/01/02 01:37:14;;;;;;;8.27;5.37;;;;;;;;;;4963341;28;20704;-73
2024/01/02 01:39:39;;;;;;;8.63;5.53;;;;;;;;;;4950199;28;20332;-73
2024/01/02 01:42:05;;;;;;;9.37;5.50;;;;;;;;;;4954985;28;20346;-73
2024/01/02 01:44:30;;;;;;;9.53;5.20;;;;;;;;;;4963375;28;20623;-73
2024/01/02 01:46:55;;;;;;;8.17;5.50;;;;;;;;;;4959906;28;20240;-73
2024/01/02 01:49:21;;;;;;;10.17;5.47;;;;;;;;;;4960281;28;20343;-72
2024/01/02 01:51:46;;;;;;;8.70;5.47;;;;;;;;;;4965880;28;20307;-73
2024/01/02 01:54:14;;;;;;;7.67;5.57;;;;;;;;;;4959675;28;21035;-72
2024/01/02 01:56:42;;;;;;;9.80;5.47;;;;;;;;;;4958320;28;20254;-73
2024/01/02 01:59:07;;;;;;;10.03;5.70;;;;;;;;;;4961780;28;20250;-73
2024/01/02 02:01:32;;;;;;;8.60;5.57;;;;;;;;;;4966703;28;20259;-73
2024/01/02 02:03:58;;;;;;;9.60;5.90;;;;;;;;;;4948803;28;20235;-74
2024/01/02 02:06:24;;;;;;;9.30;5.90;;;;;;;;;;4959046;28;20250;-72
2024/01/02 02:08:49;;;;;;;15.17;8.30;;;;;;;;;;4967276;28;20282;-73
2024/01/02 02:11:15;;;;;;;17.33;8.67;;;;;;;;;;4966208;28;20323;-72
2024/01/02 02:13:40;;;;;;;20.50;11.00;;;;;;;;;;4960828;28;20224;-72
2024/01/02 02:16:06;;;;;;;34.30;17.37;;;;;;;;;;4958238;28;20343;-72
2024/01/02 02:18:31;;;;;;;31.00;16.80;;;;;;;;;;4953906;28;20311;-72
2024/01/02 02:20:56;;;;;;;49.33;23.40;;;;;;;;;;4964069;28;20259;-74
2024/01/02 02:23:22;;;;;;;51.90;25.03;;;;;;;;;;4944258;28;20283;-73
2024/01/02 02:25:47;;;;;;;62.13;28.73;;;;;;;;;;4962133;28;21189;-73
2024/01/02 02:28:12;;;;;;;63.80;29.80;;;;;;;;;;4960815;28;20244;-73
2024/01/02 02:30:38;;;;;;;62.70;30.43;;;;;;;;;;4964557;28;20279;-73
2024/01/02 02:33:03;;;;;;;62.43;30.50;;;;;;;;;;4959867;28;20232;-72
2024/01/02 02:35:28;;;;;;;59.67;30.27;;;;;;;;;;4967914;28;20219;-73
2024/01/02 02:37:54;;;;;;;58.40;28.87;;;;;;;;;;4942193;28;20229;-73
2024/01/02 02:40:19;;;;;;;56.50;28.53;;;;;;;;;;4948571;28;20224;-72
2024/01/02 02:42:45;;;;;;;58.53;28.60;;;;;;;;;;4959937;28;20223;-73
2024/01/02 02:45:10;;;;;;;61.90;30.03;;;;;;;;;;4965049;28;20243;-73
2024/01/02 02:47:37;;;;;;;60.27;29.40;;;;;;;;;;4965403;28;20236;-73
2024/01/02 02:50:04;;;;;;;61.33;29.53;;;;;;;;;;4952709;28;20287;-73
2024/01/02 02:52:29;;;;;;;60.30;28.90;;;;;;;;;;4963492;28;20220;-73
2024/01/02 02:54:54;;;;;;;59.40;28.47;;;;;;;;;;4963606;28;20286;-73
2024/01/02 02:57:20;;;;;;;55.47;27.23;;;;;;;;;;4964412;28;20232;-72
2024/01/02 02:59:45;;;;;;;47.30;23.30;;;;;;;;;;4958595;28;20220;-73
2024/01/02 03:02:10;;;;;;;42.53;22.40;;;;;;;;;;4964018;28;20298;-74
2024/01/02 03:04:36;;;;;;;49.50;24.10;;;;;;;;;;4959799;28;20728;-72
2024/01/02 03:07:01;;;;;;;48.97;24.30;;;;;;;;;;4955878;28;20248;-72
2024/01/02 03:09:26;;;;;;;31.47;16.80;;;;;;;;;;4958090;28;20212;-72
2024/01/02 03:11:52;;;;;;;52.27;23.97;;;;;;;;;;4954928;28;20220;-72
2024/01/02 03:14:17;;;;;;;23.60;10.70;;;;;;;;;;4963959;28;20220;-73
2024/01/02 03:16:42;;;;;;;22.53;11.60;;;;;;;;;;4946949;28;20244;-72
2024/01/02 03:19:08;;;;;;;12.33;7.10;;;;;;;;;;4949785;28;21199;-73
2024/01/02 03:21:33;;;;;;;11.37;6.70;;;;;;;;;;4958916;28;20250;-73
2024/01/02 03:23:58;;;;;;;15.87;9.17;;;;;;;;;;4957177;28;20232;-72
2024/01/02 03:26:24;;;;;;;11.07;6.80;;;;;;;;;;4940528;28;20220;-73
2024/01/02 03:28:49;;;;;;;10.47;5.43;;;;;;;;;;4956933;28;20663;-73
2024/01/02 03:31:14;;;;;;;8.70;4.93;;;;;;;;;;4946508;28;20231;-73
2024/01/02 03:33:40;;;;;;;7.40;4.63;;;;;;;;;;4956128;28;20227;-72
2024/01/02 03:36:12;;;;;;;6.53;4.00;;;;;;;;;;4946464;28;20252;-73
2024/01/02 03:38:37;;;;;;;7.60;4.37;;;;;;;;;;4946567;28;20707;-73
2024/01/02 03:41:03;;;;;;;5.43;3.47;;;;;;;;;;4940734;28;20300;-73
2024/01/02 03:43:28;;;;;;;4.50;3.47;;;;;;;;;;4959384;28;20228;-73
2024/01/02 03:45:53;;;;;;;7.05;4.20;;;;;;;;;;4922898;28;1231570;-71
2024/01/02 03:48:18;;;;;;;6.37;3.70;;;;;;;;;;4946751;28;20880;-73
2024/01/02 03:50:44;;;;;;;5.63;3.60;;;;;;;;;;4955584;28;20665;-72
2024/01/02 03:53:09;;;;;;;5.83;3.90;;;;;;;;;;4959899;28;20248;-72
2024/01/02 03:55:34;;;;;;;7.13;3.70;;;;;;;;;;4960215;28;20220;-72
2024/01/02 03:58:00;;;;;;;6.27;4.03;;;;;;;;;;4963295;28;20701;-73
2024/01/02 04:00:25;;;;;;;6.23;3.80;;;;;;;;;;4947410;28;20271;-73
2024/01/02 04:02:50;;;;;;;5.50;3.70;;;;;;;;;;4965218;28;20232;-73
2024/01/02 04:05:16;;;;;;;5.27;3.80;;;;;;;;;;4962419;28;20227;-73
2024/01/02 04:07:41;;;;;;;6.20;4.23;;;;;;;;;;4958340;28;20294;-73
2024/01/02 04:10:07;;;;;;;6.40;4.23;;;;;;;;;;4964297;28;20743;-74
2024/01/02 04:12:32;;;;;;;8.63;5.20;;;;;;;;;;4963290;28;20291;-73
2024/01/02 04:14:58;;;;;;;9.10;5.60;;;;;;;;;;4958768;28;20231;-73
2024/01/02 04:17:23;;;;;;;8.83;5.37;;;;;;;;;;4955688;28;20223;-74
2024/01/02 04:19:48;;;;;;;9.43;6.00;;;;;;;;;;4955725;28;20391;-73
2024/01/02 04:22:14;;;;;;;9.07;5.53;;;;;;;;;;4962966;28;20247;-74
2024/01/02 04:24:39;;;;;;;9.70;6.00;;;;;;;;;;4955476;28;20231;-73
2024/01/02 04:27:05;;;;;;;9.20;5.50;;;;;;;;;;4956929;28;20247;-74
2024/01/02 04:29:30;;;;;;;9.70;5.77;;;;;;;;;;4964655;28;20226;-75
2024/01/02 04:31:55;;;;;;;9.90;5.70;;;;;;;;;;4964462;28;20711;-74
2024/01/02 04:34:21;;;;;;;11.27;6.23;;;;;;;;;;4948889;28;20250;-74
2024/01/02 04:36:46;;;;;;;10.33;6.00;;;;;;;;;;4946256;28;20302;-74
2024/01/02 04:39:12;;;;;;;10.77;6.47;;;;;;;;;;4934946;28;20220;-73
2024/01/02 04:41:37;;;;;;;10.50;6.47;;;;;;;;;;4946067;28;20224;-73
2024/01/02 04:44:03;;;;;;;10.07;5.90;;;;;;;;;;4960219;28;20298;-72
2024/01/02 04:46:28;;;;;;;9.60;5.83;;;;;;;;;;4939061;28;20619;-74
2024/01/02 04:48:54;;;;;;;10.50;5.60;;;;;;;;;;4958382;28;20323;-74
2024/01/02 04:51:19;;;;;;;8.23;5.27;;;;;;;;;;4938942;28;21159;-72
2024/01/02 04:53:45;;;;;;;6.50;3.70;;;;;;;;;;4942241;28;20294;-73
2024/01/02 04:56:10;;;;;;;5.80;3.60;;;;;;;;;;4954362;28;20228;-73
2024/01/02 04:58:35;;;;;;;5.07;3.50;;;;;;;;;;4958499;28;20232;-72
2024/01/02 05:01:02;;;;;;;5.30;3.73;;;;;;;;;;4960204;28;20319;-72
2024/01/02 05:03:27;;;;;;;4.73;3.20;;;;;;;;;;4954386;28;20931;-73
2024/01/02 05:05:53;;;;;;;5.60;3.23;;;;;;;;;;4936423;28;20227;-73
2024/01/02 05:08:19;;;;;;;5.17;3.30;;;;;;;;;;4940251;28;20239;-73
2024/01/02 05:10:44;;;;;;;6.20;3.40;;;;;;;;;;4957094;28;20215;-73
2024/01/02 05:13:10;;;;;;;5.47;3.33;;;;;;;;;;4959613;28;20243;-73
2024/01/02 05:15:35;;;;;;;4.87;3.27;;;;;;;;;;4960955;28;20902;-73
2024/01/02 05:18:00;;;;;;;5.17;3.17;;;;;;;;;;4960098;28;20243;-74
2024/01/02 05:20:25;;;;;;;4.33;3.00;;;;;;;;;;4959098;28;20363;-74
2024/01/02 05:22:51;;;;;;;3.97;2.80;;;;;;;;;;4948952;28;20232;-73
2024/01/02 05:25:16;;;;;;;5.43;2.77;;;;;;;;;;4960195;28;20228;-72
2024/01/02 05:27:44;;;;;;;4.00;2.80;;;;;;;;;;4942795;28;20298;-73
2024/01/02 05:30:10;;;;;;;4.37;2.53;;;;;;;;;;4942962;28;20559;-73
2024/01/02 05:32:35;;;;;;;2.50;2.27;;;;;;;;;;4953602;28;20274;-73
2024/01/02 05:35:01;;;;;;;5.87;2.40;;;;;;;;;;4960598;28;20346;-73
2024/01/02 05:37:26;;;;;;;2.50;2.13;;;;;;;;;;4954445;28;20701;-74
2024/01/02 05:39:51;;;;;;;4.13;2.50;;;;;;;;;;4954402;28;20247;-73
2024/01/02 05:42:17;;;;;;;4.10;2.13;;;;;;;;;;4946243;28;20243;-73
2024/01/02 05:44:42;;;;;;;3.23;2.17;;;;;;;;;;4952581;28;20244;-74
2024/01/02 05:47:07;;;;;;;2.67;2.00;;;;;;;;;;4960533;28;20328;-73
2024/01/02 05:49:33;;;;;;;2.97;2.10;;;;;;;;;;4962283;28;20303;-74
2024/01/02 05:51:58;;;;;;;2.93;2.13;;;;;;;;;;4959476;28;20232;-73
2024/01/02 05:54:23;;;;;;;3.63;2.13;;;;;;;;;;4954198;28;20220;-73
2024/01/02 05:56:50;;;;;;;2.27;1.83;;;;;;;;;;4944839;28;20311;-73
2024/01/02 05:59:15;;;;;;;2.63;2.00;;;;;;;;;;4950649;28;20232;-74
2024/01/02 06:01:40;;;;;;;2.63;1.93;;;;;;;;;;4960091;28;20960;-74
2024/01/02 06:04:06;;;;;;;2.20;1.97;;;;;;;;;;4953480;28;20224;-74
2024/01/02 06:06:31;;;;;;;2.43;1.80;;;;;;;;;;4962193;28;20299;-73
2024/01/02 06:08:56;;;;;;;2.17;1.90;;;;;;;;;;4959020;28;20228;-74
2024/01/02 06:11:22;;;;;;;2.43;1.90;;;;;;;;;;4963446;28;20271;-73
2024/01/02 06:13:47;;;;;;;2.23;1.87;;;;;;;;;;4934637;28;20255;-74
2024/01/02 06:16:13;;;;;;;2.43;1.77;;;;;;;;;;4945872;28;20671;-73
2024/01/02 06:18:38;;;;;;;2.00;1.80;;;;;;;;;;4953552;28;20228;-73
2024/01/02 06:21:04;;;;;;;4.20;1.83;;;;;;;;;;4951195;28;20231;-74
2024/01/02 06:23:33;;;;;;;2.47;1.80;;;;;;;;;;4928478;28;20231;-73
2024/01/02 06:25:58;;;;;;;3.10;2.17;;;;;;;;;;4939047;28;20216;-73
2024/01/02 06:28:24;;;;;;;2.40;1.90;;;;;;;;;;4964400;28;20235;-74
2024/01/02 06:30:49;;;;;;;1.90;1.70;;;;;;;;;;4948313;28;20271;-73
2024/01/02 06:33:15;;;;;;;1.90;1.70;;;;;;;;;;4960863;28;20693;-73
2024/01/02 06:35:40;;;;;;;2.40;1.90;;;;;;;;;;4948426;28;21222;-72
2024/01/02 06:38:05;;;;;;;2.23;1.80;;;;;;;;;;4953699;28;20231;-73
2024/01/02 06:40:31;;;;;;;2.37;1.60;;;;;;;;;;4954271;28;20663;-74
2024/01/02 06:42:56;;;;;;;1.73;1.63;;;;;;;;;;4946967;28;20227;-73
2024/01/02 06:45:21;;;;;;;2.23;1.60;;;;;;;;;;4960666;28;20224;-72
2024/01/02 06:47:47;;;;;;;1.87;1.50;;;;;;;;;;4963808;28;20240;-73
2024/01/02 06:50:12;;;;;;;2.57;1.50;;;;;;;;;;4963076;28;20234;-73
2024/01/02 06:52:37;;;;;;;2.37;1.37;;;;;;;;;;4965047;28;20286;-73
2024/01/02 06:55:04;;;;;;;2.03;1.40;;;;;;;;;;4965323;28;20234;-73
2024/01/02 06:57:29;;;;;;;1.70;1.60;;;;;;;;;;4965516;28;20221;-73
2024/01/02 06:59:54;;;;;;;1.40;1.30;;;;;;;;;;4964030;28;20251;-73
2024/01/02 07:02:20;;;;;;;1.70;1.40;;;;;;;;;;4961395;28;20238;-73
2024/01/02 07:04:45;;;;;;;1.67;1.30;;;;;;;;;;4957254;28;20227;-72
2024/01/02 07:07:10;;;;;;;1.77;1.30;;;;;;;;;;4956654;28;20725;-73
2024/01/02 07:09:36;;;;;;;1.80;1.50;;;;;;;;;;4947681;28;20820;-73
2024/01/02 07:12:01;;;;;;;1.40;1.30;;;;;;;;;;4960715;28;20238;-74
2024/01/02 07:14:26;;;;;;;1.40;1.30;;;;;;;;;;4958448;28;20224;-73
2024/01/02 07:16:52;;;;;;;3.60;1.47;;;;;;;;;;4962205;28;20224;-73
2024/01/02 07:19:17;;;;;;;1.60;1.40;;;;;;;;;;4946657;28;20230;-72
2024/01/02 07:21:42;;;;;;;1.63;1.40;;;;;;;;;;4964947;28;20220;-72
2024/01/02 07:24:08;;;;;;;1.90;1.40;;;;;;;;;;4945421;28;20224;-72
2024/01/02 07:26:33;;;;;;;1.63;1.30;;;;;;;;;;4965084;28;20224;-72
2024/01/02 07:28:58;;;;;;;1.50;1.30;;;;;;;;;;4946240;28;20240;-72
2024/01/02 07:31:23;;;;;;;3.87;1.20;;;;;;;;;;4958209;28;20625;-72
2024/01/02 07:33:49;;;;;;;1.63;1.33;;;;;;;;;;4962613;28;20626;-72
2024/01/02 07:36:15;;;;;;;1.30;1.20;;;;;;;;;;4946740;28;20238;-72
2024/01/02 07:38:41;;;;;;;1.60;1.27;;;;;;;;;;4957705;28;20939;-71
2024/01/02 07:41:06;;;;;;;1.80;1.00;;;;;;;;;;4963315;28;20224;-72
2024/01/02 07:43:31;;;;;;;1.73;1.20;;;;;;;;;;4963548;28;20227;-72
2024/01/02 07:45:57;;;;;;;1.57;1.17;;;;;;;;;;4955836;28;20294;-72
2024/01/02 07:48:23;;;;;;;1.87;1.20;;;;;;;;;;4964373;28;20306;-72
2024/01/02 07:50:48;;;;;;;1.43;1.20;;;;;;;;;;4947253;28;20656;-72
2024/01/02 07:53:19;;;;;;;2.30;1.30;;;;;;;;;;4958729;28;20229;-72
2024/01/02 07:55:45;;;;;;;2.00;1.20;;;;;;;;;;4955975;28;21045;-74
2024/01/02 07:58:10;;;;;;;1.87;1.20;;;;;;;;;;4958400;28;20269;-74
2024/01/02 08:00:35;;;;;;;1.77;1.17;;;;;;;;;;4946871;28;20216;-73
2024/01/02 08:03:01;;;;;;;2.20;1.40;;;;;;;;;;4962382;28;20347;-74
2024/01/02 08:05:26;;;;;;;2.73;1.30;;;;;;;;;;4964166;28;20231;-73
2024/01/02 08:07:51;;;;;;;1.67;1.30;;;;;;;;;;4962922;28;20231;-73
2024/01/02 08:10:17;;;;;;;3.00;1.53;;;;;;;;;;4956004;28;20332;-74
2024/01/02 08:12:42;;;;;;;2.10;1.30;;;;;;;;;;4956217;28;20283;-73
2024/01/02 08:15:08;;;;;;;1.60;1.30;;;;;;;;;;4946124;28;20232;-73
2024/01/02 08:17:33;;;;;;;1.47;1.10;;;;;;;;;;4964223;28;20721;-74
2024/01/02 08:19:58;;;;;;;2.20;1.50;;;;;;;;;;4946025;28;20235;-74
2024/01/02 08:22:24;;;;;;;2.23;1.30;;;;;;;;;;4960525;28;20223;-73
2024/01/02 08:24:49;;;;;;;2.00;1.30;;;;;;;;;;4960782;28;20890;-75
2024/01/02 08:27:14;;;;;;;1.80;1.23;;;;;;;;;;4942483;28;23532;-73
2024/01/02 08:29:40;;;;;;;2.00;1.37;;;;;;;;;;4946533;28;20278;-74
2024/01/02 08:32:05;;;;;;;2.13;1.30;;;;;;;;;;4956517;28;20311;-73
2024/01/02 08:34:30;;;;;;;3.83;1.20;;;;;;;;;;4962355;28;20235;-73
2024/01/02 08:36:56;;;;;;;1.43;1.10;;;;;;;;;;4959049;28;20303;-75
2024/01/02 08:39:21;;;;;;;1.37;1.20;;;;;;;;;;4958232;28;20226;-75
2024/01/02 08:41:46;;;;;;;2.33;1.10;;;;;;;;;;4956594;28;20307;-73
2024/01/02 08:44:12;;;;;;;2.23;1.40;;;;;;;;;;4961690;28;20970;-72
2024/01/02 08:46:37;;;;;;;2.07;1.50;;;;;;;;;;4946372;28;20732;-74
2024/01/02 08:49:03;;;;;;;2.37;1.77;;;;;;;;;;4960271;28;20259;-73
2024/01/02 08:51:28;;;;;;;2.00;1.63;;;;;;;;;;4955078;28;20224;-74
2024/01/02 08:53:54;;;;;;;2.90;1.40;;;;;;;;;;4962455;28;20228;-74
2024/01/02 08:56:21;;;;;;;1.40;1.30;;;;;;;;;;4945573;28;20840;-73
2024/01/02 08:58:46;;;;;;;1.90;1.40;;;;;;;;;;4946897;28;20228;-73
2024/01/02 09:01:12;;;;;;;2.60;1.50;;;;;;;;;;4955310;28;20228;-73
2024/01/02 09:03:37;;;;;;;2.57;1.70;;;;;;;;;;4945533;28;20223;-74
2024/01/02 09:06:03;;;;;;;3.83;1.60;;;;;;;;;;4945203;28;20227;-74
2024/01/02 09:08:29;;;;;;;3.37;2.03;;;;;;;;;;4962300;28;20332;-73
2024/01/02 09:10:54;;;;;;;4.73;1.73;;;;;;;;;;4946016;28;20216;-73
2024/01/02 09:13:20;;;;;;;2.53;1.73;;;;;;;;;;4945020;28;20224;-74
2024/01/02 09:15:45;;;;;;;2.67;1.90;;;;;;;;;;4962715;28;20216;-72
2024/01/02 09:18:11;;;;;;;5.03;1.70;;;;;;;;;;4955046;28;20228;-71
2024/01/02 09:20:36;;;;;;;2.37;1.60;;;;;;;;;;4959300;28;20319;-73
2024/01/02 09:23:01;;;;;;;1.70;1.30;;;;;;;;;;4962716;28;20322;-72
2024/01/02 09:25:27;;;;;;;2.43;1.50;;;;;;;;;;4963486;28;20228;-72
2024/01/02 09:27:57;;;;;;;5.27;1.70;;;;;;;;;;4946107;28;20244;-72
2024/01/02 09:30:23;;;;;;;3.50;2.13;;;;;;;;;;4955535;28;20236;-71
2024/01/02 09:32:49;;;;;;;5.57;2.10;;;;;;;;;;4958294;28;20314;-72
2024/01/02 09:35:15;;;;;;;4.53;2.00;;;;;;;;;;4958530;28;20346;-72
2024/01/02 09:37:40;;;;;;;3.77;2.00;;;;;;;;;;4963682;28;20821;-73
2024/01/02 09:40:09;;;;;;;5.30;2.80;;;;;;;;;;4945093;28;20247;-73
2024/01/02 09:42:44;;;;;;;8.00;2.67;;;;;;;;;;4965721;28;20228;-73
2024/01/02 09:45:17;;;;;;;5.00;2.60;;;;;;;;;;4941508;28;20959;-72
2024/01/02 09:47:48;;;;;;;4.03;2.60;;;;;;;;;;4943261;28;20289;-72
2024/01/02 09:50:27;;;;;;;6.20;2.67;;;;;;;;;;4966000;28;20751;-72
2024/01/02 09:52:55;;;;;;;4.07;2.50;;;;;;;;;;4960824;28;20224;-72
2024/01/02 09:55:32;;;;;;;5.17;2.60;;;;;;;;;;4965906;28;20621;-72
2024/01/02 09:58:00;;;;;;;5.70;2.80;;;;;;;;;;4947760;28;20319;-73
2024/01/02 10:00:38;;;;;;;5.90;3.27;;;;;;;;;;4964742;28;20298;-72
2024/01/02 10:03:13;;;;;;;6.67;3.30;;;;;;;;;;4964540;28;20231;-72
2024/01/02 10:05:39;;;;;;;7.30;3.20;;;;;;;;;;4948835;28;20231;-72
2024/01/02 10:08:07;;;;;;;6.47;3.07;;;;;;;;;;4964987;28;20239;-73
2024/01/02 10:10:36;;;;;;;10.03;3.80;;;;;;;;;;4965205;28;20216;-73
2024/01/02 10:13:22;;;;;;;7.20;3.60;;;;;;;;;;4958232;28;20243;-72
2024/01/02 10:15:59;;;;;;;6.63;3.40;;;;;;;;;;4963943;28;20906;-73
2024/01/02 10:18:37;;;;;;;6.17;2.97;;;;;;;;;;4965341;28;20745;-73
2024/01/02 10:21:21;;;;;;;5.87;2.77;;;;;;;;;;4958971;28;20271;-73
2024/01/02 10:24:05;;;;;;;5.67;2.90;;;;;;;;;;4955552;28;20235;-73
2024/01/02 10:26:32;;;;;;;5.43;2.23;;;;;;;;;;4964952;28;20212;-72
2024/01/02 10:29:00;;;;;;;3.90;2.33;;;;;;;;;;4959246;28;20844;-73
2024/01/02 10:31:32;;;;;;;5.20;2.23;;;;;;;;;;4955221;28;20311;-73
2024/01/02 10:34:12;;;;;;;5.03;2.27;;;;;;;;;;4964144;28;20307;-72
2024/01/02 10:36:40;;;;;;;4.33;2.30;;;;;;;;;;4959592;28;20224;-71
2024/01/02 10:39:08;;;;;;;5.70;2.30;;;;;;;;;;4961642;28;20235;-73
2024/01/02 10:41:52;;;;;;;3.90;2.40;;;;;;;;;;4948724;28;20219;-72
2024/01/02 10:44:23;;;;;;;2.80;1.73;;;;;;;;;;4965732;28;20223;-72
2024/01/02 10:46:51;;;;;;;2.90;1.70;;;;;;;;;;4964674;28;20724;-72
2024/01/02 10:49:25;;;;;;;5.23;2.00;;;;;;;;;;4965293;28;20315;-71
2024/01/02 10:51:52;;;;;;;5.37;2.20;;;;;;;;;;4948271;28;20224;-73
2024/01/02 10:54:40;;;;;;;3.70;2.20;;;;;;;;;;4963141;28;20251;-73
2024/01/02 10:57:06;;;;;;;4.07;2.40;;;;;;;;;;4926856;28;20224;-72
2024/01/02 10:59:47;;;;;;;3.97;2.30;;;;;;;;;;4948346;28;20282;-73
2024/01/02 11:02:27;;;;;;;4.50;2.30;;;;;;;;;;4963473;28;20282;-73
2024/01/02 11:05:00;;;;;;;3.63;2.10;;;;;;;;;;4963946;28;20286;-73
2024/01/02 11:07:28;;;;;;;4.10;2.20;;;;;;;;;;4958732;28;20744;-72
2024/01/02 11:09:56;;;;;;;3.93;2.10;;;;;;;;;;4957120;28;20220;-71
2024/01/02 11:12:22;;;;;;;2.70;2.07;;;;;;;;;;4957635;28;21358;-73
2024/01/02 11:14:48;;;;;;;5.57;2.30;;;;;;;;;;4961572;28;20250;-72
2024/01/02 11:17:13;;;;;;;3.40;2.20;;;;;;;;;;4947199;28;20828;-72
2024/01/02 11:20:01;;;;;;;2.90;2.00;;;;;;;;;;4958334;28;20274;-73
2024/01/02 11:22:35;;;;;;;2.93;2.13;;;;;;;;;;4962795;28;20228;-73
2024/01/02 11:25:02;;;;;;;4.20;2.20;;;;;;;;;;4946256;28;20311;-72
2024/01/02 11:27:28;;;;;;;5.73;2.67;;;;;;;;;;4958416;28;20236;-72
2024/01/02 11:29:53;;;;;;;4.27;2.33;;;;;;;;;;4964671;28;20227;-73
2024/01/02 11:32:20;;;;;;;5.60;2.50;;;;;;;;;;4957220;28;20224;-73
2024/01/02 11:34:50;;;;;;;4.50;2.70;;;;;;;;;;4955199;28;20250;-73
2024/01/02 11:37:23;;;;;;;3.77;2.00;;;;;;;;;;4946462;28;20239;-73
2024/01/02 11:40:06;;;;;;;4.43;2.10;;;;;;;;;;4960203;28;20228;-73
2024/01/02 11:42:38;;;;;;;5.00;1.90;;;;;;;;;;4962841;28;20634;-73
2024/01/02 11:45:13;;;;;;;3.30;2.00;;;;;;;;;;4964311;28;20223;-73
2024/01/02 11:47:38;;;;;;;3.43;2.00;;;;;;;;;;4953902;28;20243;-73
2024/01/02 11:50:04;;;;;;;3.20;2.00;;;;;;;;;;4962299;28;20795;-73
2024/01/02 11:52:32;;;;;;;4.10;2.40;;;;;;;;;;4963460;28;20228;-72
2024/01/02 11:55:03;;;;;;;3.77;2.40;;;;;;;;;;4956815;28;20224;-73
2024/01/02 11:57:32;;;;;;;3.53;2.23;;;;;;;;;;4964726;28;20220;-72
2024/01/02 12:00:08;;;;;;;4.63;2.50;;;;;;;;;;4964174;28;20213;-72
2024/01/02 12:02:33;;;;;;;5.10;2.27;;;;;;;;;;4964626;28;20223;-72
2024/01/02 12:05:08;;;;;;;4.93;2.70;;;;;;;;;;4963898;28;20228;-73
2024/01/02 12:07:37;;;;;;;3.57;2.20;;;;;;;;;;4960293;28;20239;-73
2024/01/02 12:10:02;;;;;;;3.17;2.00;;;;;;;;;;4961345;28;20228;-74
2024/01/02 12:12:36;;;;;;;4.27;2.10;;;;;;;;;;4962564;28;20741;-73
2024/01/02 12:15:05;;;;;;;4.03;2.23;;;;;;;;;;4956780;28;20227;-73
2024/01/02 12:17:33;;;;;;;4.00;2.10;;;;;;;;;;4962648;28;20230;-73
2024/01/02 12:20:04;;;;;;;3.73;2.10;;;;;;;;;;4946145;28;20232;-73
2024/01/02 12:22:30;;;;;;;2.80;1.90;;;;;;;;;;4959787;28;20234;-73
2024/01/02 12:24:55;;;;;;;3.47;1.97;;;;;;;;;;4962137;28;20643;-72
2024/01/02 12:27:23;;;;;;;4.63;2.13;;;;;;;;;;4954708;28;20240;-72
2024/01/02 12:29:50;;;;;;;3.80;2.10;;;;;;;;;;4950581;28;20268;-73
2024/01/02 12:32:41;;;;;;;4.13;2.07;;;;;;;;;;4953627;28;20398;-73
2024/01/02 12:35:09;;;;;;;5.13;2.30;;;;;;;;;;4931667;28;20709;-72
2024/01/02 12:37:35;;;;;;;2.70;1.70;;;;;;;;;;4944130;28;20784;-73
2024/01/02 12:40:03;;;;;;;3.60;2.10;;;;;;;;;;4962443;28;20224;-73
2024/01/02 12:42:29;;;;;;;3.70;2.10;;;;;;;;;;4956440;28;20258;-73
2024/01/02 12:44:55;;;;;;;3.80;2.10;;;;;;;;;;4959931;28;20993;-73
2024/01/02 12:47:21;;;;;;;3.73;2.00;;;;;;;;;;4960546;28;20282;-73
2024/01/02 12:49:50;;;;;;;3.00;2.00;;;;;;;;;;4946234;28;20281;-74
2024/01/02 12:52:18;;;;;;;4.17;2.00;;;;;;;;;;4945963;28;20258;-73
2024/01/02 12:54:44;;;;;;;2.87;1.90;;;;;;;;;;4946448;28;20823;-73
2024/01/02 12:57:11;;;;;;;2.77;1.77;;;;;;;;;;4955607;28;20243;-73
2024/01/02 12:59:36;;;;;;;2.20;1.70;;;;;;;;;;4958229;28;20227;-73
2024/01/02 13:02:02;;;;;;;2.73;1.77;;;;;;;;;;4956038;28;20228;-73
2024/01/02 13:04:27;;;;;;;3.03;1.40;;;;;;;;;;4946942;28;20227;-74
2024/01/02 13:06:53;;;;;;;5.67;1.93;;;;;;;;;;4957435;28;20239;-73
2024/01/02 13:09:18;;;;;;;4.13;1.70;;;;;;;;;;4946126;28;20228;-73
2024/01/02 13:11:44;;;;;;;3.90;2.00;;;;;;;;;;4960607;28;20290;-72
2024/01/02 13:14:09;;;;;;;2.40;1.60;;;;;;;;;;4960888;28;20240;-72
2024/01/02 13:16:35;;;;;;;2.37;1.50;;;;;;;;;;4947630;28;20311;-73
2024/01/02 13:19:01;;;;;;;2.33;1.50;;;;;;;;;;4961426;28;20227;-73
2024/01/02 13:21:26;;;;;;;2.60;1.60;;;;;;;;;;4949498;28;20721;-72
2024/01/02 13:23:52;;;;;;;5.13;1.90;;;;;;;;;;4963542;28;20228;-73
2024/01/02 13:26:17;;;;;;;4.50;1.97;;;;;;;;;;4956692;28;20258;-73
2024/01/02 13:28:43;;;;;;;3.37;1.67;;;;;;;;;;4958165;28;20224;-72
2024/01/02 13:31:08;;;;;;;3.37;1.70;;;;;;;;;;4949346;28;20258;-73
2024/01/02 13:33:37;;;;;;;2.63;1.40;;;;;;;;;;4961429;28;20262;-73
2024/01/02 13:36:04;;;;;;;4.07;1.83;;;;;;;;;;4964765;28;20251;-72
2024/01/02 13:38:29;;;;;;;3.70;1.63;;;;;;;;;;4963334;28;20769;-72
2024/01/02 13:41:03;;;;;;;3.33;1.93;;;;;;;;;;4949743;28;20216;-73
2024/01/02 13:43:28;;;;;;;3.37;1.70;;;;;;;;;;4958820;28;20228;-73
2024/01/02 13:45:54;;;;;;;2.13;1.53;;;;;;;;;;4962698;28;20327;-74
2024/01/02 13:48:20;;;;;;;2.73;1.80;;;;;;;;;;4948692;28;20680;-73
2024/01/02 13:50:46;;;;;;;3.33;1.97;;;;;;;;;;4958043;28;20220;-72
2024/01/02 13:53:14;;;;;;;4.03;2.40;;;;;;;;;;4959924;28;20227;-74
2024/01/02 13:55:39;;;;;;;4.63;2.00;;;;;;;;;;4949544;28;20290;-73
2024/01/02 13:58:11;;;;;;;3.73;2.17;;;;;;;;;;4966186;28;20243;-74
2024/01/02 14:00:38;;;;;;;2.90;1.67;;;;;;;;;;4966959;28;20227;-73
2024/01/02 14:03:07;;;;;;;6.77;2.10;;;;;;;;;;4964532;28;20223;-74
2024/01/02 14:05:32;;;;;;;5.83;2.20;;;;;;;;;;4955468;28;20717;-74
2024/01/02 14:07:58;;;;;;;4.70;1.90;;;;;;;;;;4954630;28;20225;-74
2024/01/02 14:10:26;;;;;;;5.03;2.30;;;;;;;;;;4966008;28;21120;-73
2024/01/02 14:12:52;;;;;;;4.33;2.17;;;;;;;;;;4949513;28;20224;-73
2024/01/02 14:15:18;;;;;;;2.30;1.90;;;;;;;;;;4962357;28;20605;-74
2024/01/02 14:17:44;;;;;;;4.43;2.40;;;;;;;;;;4948654;28;20243;-73
2024/01/02 14:20:18;;;;;;;4.30;2.47;;;;;;;;;;4964357;28;20721;-73
2024/01/02 14:22:58;;;;;;;3.13;2.07;;;;;;;;;;4980827;28;20935;-73
2024/01/02 14:25:23;;;;;;;5.03;2.30;;;;;;;;;;4953296;28;20228;-74
2024/01/02 14:27:53;;;;;;;3.77;2.10;;;;;;;;;;4965506;28;20243;-73
2024/01/02 14:30:21;;;;;;;3.20;1.97;;;;;;;;;;4957732;28;20227;-73
2024/01/02 14:33:06;;;;;;;5.17;2.30;;;;;;;;;;4964897;28;20248;-73
2024/01/02 14:35:55;;;;;;;5.57;3.23;;;;;;;;;;4965695;28;20244;-73
2024/01/02 14:38:20;;;;;;;6.57;2.40;;;;;;;;;;4957283;28;20247;-74